Time;durP1;ratioP1;P1;durP2;ratioP2;P2;SDS_P1;SDS_P2;PMS_P1;PMS_P2;Temp;Humidity;BMP_temperature;BMP_pressure;BME280_temperature;BME280_humidity;BME280_pressure;Samples;Min_cycle;Max_cycle;Signal;HPM_P1;HPM_P2
2023/08/06 00:00:05;;;;;;;;;1.00;0.00;;;;;21.35;66.26;100879.00;5036652;28;45660;-73
2023/08/06 00:02:31;;;;;;;;;1.00;1.00;;;;;21.55;65.95;100897.44;5035322;28;45484;-73
2023/08/06 00:04:57;;;;;;;;;1.33;1.00;;;;;21.51;65.94;100883.31;5037516;28;45467;-73
2023/08/06 00:07:22;;;;;;;;;2.00;2.00;;;;;21.60;66.12;100899.16;5037017;28;45896;-73
2023/08/06 00:09:48;;;;;;;;;1.33;1.00;;;;;21.55;66.20;100884.16;5035440;28;45505;-73
2023/08/06 00:12:14;;;;;;;;;1.67;1.00;;;;;21.54;65.38;100896.56;5035905;28;45409;-74
2023/08/06 00:14:39;;;;;;;;;2.00;1.00;;;;;21.61;65.88;100908.91;5036629;28;45585;-73
2023/08/06 00:17:05;;;;;;;;;1.67;1.00;;;;;21.33;66.35;100864.81;5034456;28;47804;-73
2023/08/06 00:19:31;;;;;;;;;2.00;1.00;;;;;21.45;66.86;100892.22;5035934;28;45284;-74
2023/08/06 00:21:57;;;;;;;;;2.00;1.33;;;;;21.41;65.37;100906.41;5035574;28;45429;-73
2023/08/06 00:24:23;;;;;;;;;0.67;0.67;;;;;21.39;66.68;100908.19;5036426;28;45476;-73
2023/08/06 00:26:48;;;;;;;;;3.00;2.00;;;;;21.43;67.02;100911.75;5035420;28;45310;-73
2023/08/06 00:29:14;;;;;;;;;2.00;1.00;;;;;21.36;66.77;100902.88;5036605;28;45263;-74
2023/08/06 00:31:40;;;;;;;;;1.00;0.33;;;;;21.36;66.58;100908.19;5036092;28;45474;-74
2023/08/06 00:34:05;;;;;;;;;2.33;1.67;;;;;21.29;67.35;100902.94;5036633;28;46459;-74
2023/08/06 00:36:31;;;;;;;;;1.00;1.00;;;;;21.35;66.93;100911.78;5036678;28;46402;-73
2023/08/06 00:38:56;;;;;;;;;2.00;0.67;;;;;21.38;66.36;100900.22;5036551;28;45442;-73
2023/08/06 00:41:22;;;;;;;;;1.00;1.00;;;;;21.45;66.54;100909.94;5036881;28;45777;-74
2023/08/06 00:43:47;;;;;;;;;1.33;1.00;;;;;21.48;65.53;100909.91;5034826;28;45625;-73
2023/08/06 00:46:13;;;;;;;;;1.00;1.00;;;;;21.41;65.77;100892.22;5035731;28;45410;-73
2023/08/06 00:48:40;;;;;;;;;1.00;1.00;;;;;21.44;65.57;100905.50;5033739;28;45582;-73
2023/08/06 00:51:06;;;;;;;;;2.00;1.00;;;;;21.41;65.85;100905.53;5035801;28;45255;-73
2023/08/06 00:53:32;;;;;;;;;2.00;1.00;;;;;21.37;66.65;100901.13;5034850;28;45523;-73
2023/08/06 00:55:58;;;;;;;;;1.00;1.00;;;;;21.23;66.42;100885.31;5035957;28;46176;-73
2023/08/06 00:58:24;;;;;;;;;2.00;1.33;;;;;21.32;66.20;100889.66;5035472;28;45548;-73
2023/08/06 01:00:50;;;;;;;;;1.33;1.00;;;;;21.33;66.13;100891.41;5035521;28;46105;-73
2023/08/06 01:03:16;;;;;;;;;1.00;1.00;;;;;21.28;67.21;100894.09;5035577;28;45745;-74
2023/08/06 01:05:41;;;;;;;;;1.67;1.00;;;;;21.11;66.74;100902.22;5035361;28;45875;-73
2023/08/06 01:08:14;;;;;;;;;1.00;1.00;;;;;21.05;66.99;100910.25;5034712;28;45255;-73
2023/08/06 01:10:52;;;;;;;;;2.00;0.67;;;;;20.94;67.76;100893.50;5035478;28;45846;-73
2023/08/06 01:13:49;;;;;;;;;2.00;2.00;;;;;21.06;67.26;100904.03;5035683;28;45354;-74
2023/08/06 01:16:20;;;;;;;;;1.00;0.67;;;;;21.06;67.44;100899.59;5027450;28;46365;-73
2023/08/06 01:18:49;;;;;;;;;1.00;1.00;;;;;21.12;67.74;100906.63;5032563;28;45583;-74
2023/08/06 01:21:15;;;;;;;;;3.00;0.00;;;;;21.15;68.30;100897.75;5036758;28;45512;-73
2023/08/06 01:23:42;;;;;;;;;2.00;1.00;;;;;21.19;68.32;100903.03;5039574;28;45228;-73
2023/08/06 01:26:18;;;;;;;;;1.00;1.00;;;;;21.18;67.91;100890.63;5039119;28;45466;-73
2023/08/06 01:29:04;;;;;;;;;1.00;1.00;;;;;21.15;68.48;100908.38;5039360;28;45403;-74
2023/08/06 01:31:37;;;;;;;;;1.33;1.00;;;;;21.06;68.14;100904.91;5039861;28;45350;-73
2023/08/06 01:34:07;;;;;;;;;2.00;1.00;;;;;21.09;68.04;100901.34;5039467;28;45405;-73
2023/08/06 01:36:33;;;;;;;;;1.33;1.33;;;;;21.05;67.81;100887.22;5039287;28;46664;-73
2023/08/06 01:38:59;;;;;;;;;3.00;2.00;;;;;21.02;68.29;100887.22;5039648;28;45237;-73
2023/08/06 01:41:25;;;;;;;;;2.00;1.00;;;;;21.09;67.80;100900.44;5037969;28;45531;-74
2023/08/06 01:43:51;;;;;;;;;3.00;1.67;;;;;21.12;67.11;100898.66;5038115;28;45632;-73
2023/08/06 01:46:17;;;;;;;;;3.33;2.00;;;;;21.03;67.70;100889.00;5037644;28;47802;-73
2023/08/06 01:48:43;;;;;;;;;3.00;1.33;;;;;21.03;67.71;100894.31;5039217;28;45479;-73
2023/08/06 01:51:08;;;;;;;;;2.00;1.00;;;;;20.98;68.23;100884.59;5039267;28;45280;-73
2023/08/06 01:53:34;;;;;;;;;1.00;1.00;;;;;20.98;68.54;100888.13;5039497;28;45350;-73
2023/08/06 01:55:59;;;;;;;;;2.00;1.00;;;;;21.08;68.49;100894.25;5039376;28;45577;-74
2023/08/06 01:58:25;;;;;;;;;2.67;2.00;;;;;21.05;68.71;100891.66;5039123;28;45489;-74
2023/08/06 02:00:51;;;;;;;;;3.00;2.00;;;;;21.03;68.84;100891.66;5039277;28;45397;-73
2023/08/06 02:03:16;;;;;;;;;1.00;1.00;;;;;20.90;68.27;100892.63;5039244;28;45447;-73
2023/08/06 02:05:42;;;;;;;;;2.00;1.33;;;;;20.84;68.47;100893.53;5039207;28;45438;-73
2023/08/06 02:08:08;;;;;;;;;1.33;1.33;;;;;20.79;68.48;100883.84;5038665;28;45450;-73
2023/08/06 02:10:34;;;;;;;;;2.00;1.67;;;;;20.67;69.04;100871.53;5036316;28;45524;-73
2023/08/06 02:12:59;;;;;;;;;2.67;1.00;;;;;20.75;69.38;100893.63;5036772;28;45395;-73
2023/08/06 02:15:25;;;;;;;;;1.00;1.00;;;;;20.71;69.99;100890.97;5036156;28;45472;-73
2023/08/06 02:17:51;;;;;;;;;2.67;2.00;;;;;20.77;69.29;100891.84;5037546;28;45652;-73
2023/08/06 02:20:16;;;;;;;;;2.67;1.33;;;;;20.82;68.53;100894.47;5038400;28;45316;-74
2023/08/06 02:22:42;;;;;;;;;0.67;0.67;;;;;20.79;68.24;100894.47;5037997;28;45538;-73
2023/08/06 02:25:09;;;;;;;;;1.00;1.00;;;;;20.81;68.26;100898.00;5035904;28;45481;-73
2023/08/06 02:27:34;;;;;;;;;1.33;1.33;;;;;20.82;68.14;100895.34;5037242;28;45345;-73
2023/08/06 02:30:00;;;;;;;;;5.33;3.00;;;;;20.80;68.14;100893.59;5038387;28;45517;-73
2023/08/06 02:32:26;;;;;;;;;1.67;0.67;;;;;20.72;68.13;100896.28;5038675;28;45503;-73
2023/08/06 02:34:52;;;;;;;;;2.33;1.67;;;;;20.65;68.01;100882.19;5038082;28;45547;-73
2023/08/06 02:37:17;;;;;;;;;1.33;0.67;;;;;20.77;67.85;100897.16;5036357;28;45531;-73
2023/08/06 02:39:43;;;;;;;;;1.67;1.33;;;;;20.75;68.09;100904.25;5036838;28;45598;-73
2023/08/06 02:42:08;;;;;;;;;1.00;0.67;;;;;20.68;68.28;100905.16;5037508;28;45645;-73
2023/08/06 02:44:34;;;;;;;;;0.67;0.67;;;;;20.65;67.78;100906.06;5032849;28;46461;-73
2023/08/06 02:47:00;;;;;;;;;0.67;0.67;;;;;20.58;68.70;100901.66;5031619;28;45268;-74
2023/08/06 02:49:26;;;;;;;;;1.00;0.00;;;;;20.56;68.38;100898.13;5036378;28;45438;-73
2023/08/06 02:51:52;;;;;;;;;2.00;0.33;;;;;20.51;68.85;100899.03;5036068;28;45578;-73
2023/08/06 02:54:18;;;;;;;;;2.00;1.00;;;;;20.49;68.65;100891.06;5035646;28;46335;-73
2023/08/06 02:56:45;;;;;;;;;2.00;1.67;;;;;20.43;68.72;100884.03;5037281;28;45413;-73
2023/08/06 02:59:11;;;;;;;;;1.33;0.67;;;;;20.49;68.79;100895.50;5036731;28;45458;-73
2023/08/06 03:01:37;;;;;;;;;2.00;0.67;;;;;20.51;68.45;100896.38;5036385;28;45366;-73
2023/08/06 03:04:04;;;;;;;;;1.67;1.67;;;;;20.48;68.19;100886.66;5037120;28;46150;-73
2023/08/06 03:06:29;;;;;;;;;2.00;0.67;;;;;20.46;68.14;100881.34;5037084;28;45501;-74
2023/08/06 03:08:55;;;;;;;;;2.67;2.00;;;;;20.51;68.13;100883.97;5036357;28;45451;-73
2023/08/06 03:11:20;;;;;;;;;3.33;1.00;;;;;20.45;68.01;100876.06;5037189;28;45501;-73
2023/08/06 03:13:47;;;;;;;;;1.00;0.00;;;;;20.55;67.44;100884.84;5035015;28;47765;-73
2023/08/06 03:16:13;;;;;;;;;2.00;1.67;;;;;20.50;67.99;100886.66;5052390;28;45426;-73
2023/08/06 03:18:38;;;;;;;;;1.67;1.33;;;;;20.39;67.74;100881.41;5035961;28;45632;-73
2023/08/06 03:21:04;;;;;;;;;2.33;1.67;;;;;20.46;68.47;100889.31;5037466;28;45559;-73
2023/08/06 03:23:29;;;;;;;;;2.00;2.00;;;;;20.37;68.12;100875.22;5036648;28;45344;-73
2023/08/06 03:25:55;;;;;;;;;1.67;1.67;;;;;20.37;67.92;100867.25;5036948;28;45533;-73
2023/08/06 03:28:22;;;;;;;;;1.33;0.67;;;;;20.39;67.79;100862.81;5036524;28;45296;-73
2023/08/06 03:30:47;;;;;;;;;3.33;2.00;;;;;20.46;67.74;100875.19;5035963;28;45531;-73
2023/08/06 03:33:13;;;;;;;;;1.67;1.67;;;;;20.48;67.38;100883.13;5036483;28;45950;-73
2023/08/06 03:35:39;;;;;;;;;1.00;0.33;;;;;20.44;67.77;100882.25;5036758;28;45252;-73
2023/08/06 03:38:04;;;;;;;;;0.67;0.67;;;;;20.46;68.28;100881.34;5036763;28;45575;-73
2023/08/06 03:40:30;;;;;;;;;1.67;1.00;;;;;20.43;68.04;100881.41;5035946;28;45607;-73
2023/08/06 03:42:56;;;;;;;;;2.33;1.67;;;;;20.42;67.88;100879.63;5035050;28;46868;-74
2023/08/06 03:45:21;;;;;;;;;3.67;1.00;;;;;20.29;68.78;100877.91;5036423;28;45419;-73
2023/08/06 03:47:47;;;;;;;;;2.67;1.33;;;;;20.19;69.13;100876.19;5035811;28;45629;-73
2023/08/06 03:50:12;;;;;;;;;2.67;1.67;;;;;20.13;69.45;100877.09;5036146;28;45517;-73
2023/08/06 03:52:38;;;;;;;;;2.00;1.00;;;;;20.12;69.02;100885.94;5035199;28;46337;-73
2023/08/06 03:55:04;;;;;;;;;2.00;1.67;;;;;20.09;68.76;100872.69;5037121;28;45301;-73
2023/08/06 03:57:29;;;;;;;;;1.67;0.67;;;;;20.11;68.81;100878.88;5036745;28;45391;-74
2023/08/06 03:59:55;;;;;;;;;1.33;1.33;;;;;20.14;68.83;100876.22;5035869;28;45534;-73
2023/08/06 04:02:20;;;;;;;;;3.00;1.00;;;;;20.18;68.92;100879.75;5035928;28;45981;-73
2023/08/06 04:04:46;;;;;;;;;1.33;0.33;;;;;20.17;69.36;100877.97;5036324;28;45531;-74
2023/08/06 04:07:11;;;;;;;;;1.33;1.33;;;;;20.05;69.51;100877.16;5036161;28;45517;-73
2023/08/06 04:09:56;;;;;;;;;1.67;1.00;;;;;20.00;69.51;100872.75;5035556;28;45531;-73
2023/08/06 04:12:22;;;;;;;;;1.33;1.33;;;;;20.04;69.47;100875.38;5035838;28;45446;-73
2023/08/06 04:14:47;;;;;;;;;1.67;0.67;;;;;20.13;68.95;100876.22;5036089;28;45496;-73
2023/08/06 04:17:13;;;;;;;;;2.33;1.67;;;;;20.13;69.09;100877.09;5035632;28;45513;-74
2023/08/06 04:19:38;;;;;;;;;1.67;1.00;;;;;20.00;69.35;100876.25;5036449;28;45430;-73
2023/08/06 04:22:04;;;;;;;;;0.33;0.33;;;;;20.02;69.17;100879.78;5030897;28;46116;-73
2023/08/06 04:24:30;;;;;;;;;1.00;1.00;;;;;20.08;69.82;100883.31;5029958;28;45445;-73
2023/08/06 04:26:55;;;;;;;;;1.67;1.33;;;;;20.12;69.67;100890.38;5035834;28;45405;-73
2023/08/06 04:29:21;;;;;;;;;2.67;2.67;;;;;20.12;69.81;100891.25;5038915;28;45259;-73
2023/08/06 04:31:46;;;;;;;;;3.67;2.00;;;;;20.15;69.83;100900.97;5035712;28;46101;-74
2023/08/06 04:34:12;;;;;;;;;1.33;1.33;;;;;20.21;69.42;100895.63;5035552;28;45521;-72
2023/08/06 04:36:38;;;;;;;;;1.67;1.67;;;;;20.24;69.32;100898.28;5036347;28;45376;-73
2023/08/06 04:39:04;;;;;;;;;2.00;0.67;;;;;20.18;69.50;100893.88;5036320;28;45595;-73
2023/08/06 04:41:30;;;;;;;;;2.33;1.33;;;;;20.17;69.14;100886.78;5035229;28;45981;-73
2023/08/06 04:43:57;;;;;;;;;2.33;1.33;;;;;20.12;69.13;100895.69;5035479;28;45379;-73
2023/08/06 04:46:22;;;;;;;;;1.00;0.67;;;;;20.05;69.67;100894.81;5020553;28;45502;-74
2023/08/06 04:48:48;;;;;;;;;3.00;2.33;;;;;19.94;69.43;100891.31;5036196;28;45395;-73
2023/08/06 04:51:14;;;;;;;;;3.67;1.33;;;;;20.03;69.23;100900.13;5036049;28;45495;-73
2023/08/06 04:53:40;;;;;;;;;1.00;1.00;;;;;20.02;69.38;100897.47;5034481;28;45369;-73
2023/08/06 04:56:05;;;;;;;;;0.67;0.67;;;;;19.96;69.99;100911.63;5036990;28;45337;-73
2023/08/06 04:58:31;;;;;;;;;1.33;1.33;;;;;19.99;69.24;100911.59;5039638;28;45389;-73
2023/08/06 05:00:56;;;;;;;;;3.33;1.33;;;;;20.04;69.06;100907.19;5038717;28;46078;-74
2023/08/06 05:03:22;;;;;;;;;3.67;1.33;;;;;20.06;68.73;100905.41;5037922;28;45797;-73
2023/08/06 05:05:48;;;;;;;;;4.33;2.33;;;;;20.06;68.72;100900.09;5038938;28;45540;-73
2023/08/06 05:08:18;;;;;;;;;1.33;0.33;;;;;20.20;68.54;100915.09;5038083;28;45261;-73
2023/08/06 05:10:45;;;;;;;;;3.33;0.67;;;;;20.23;68.12;100920.38;5039178;28;45383;-73
2023/08/06 05:13:11;;;;;;;;;2.00;2.00;;;;;20.25;68.05;100913.28;5038978;28;45311;-73
2023/08/06 05:15:37;;;;;;;;;4.67;2.00;;;;;20.23;68.09;100915.97;5037688;28;45460;-73
2023/08/06 05:18:03;;;;;;;;;2.00;2.00;;;;;20.15;69.12;100909.78;5039215;28;45905;-72
2023/08/06 05:20:28;;;;;;;;;3.33;2.33;;;;;20.20;68.66;100915.09;5025693;28;47706;-74
2023/08/06 05:22:54;;;;;;;;;2.00;1.00;;;;;20.21;69.25;100917.75;5047277;28;45413;-73
2023/08/06 05:25:20;;;;;;;;;2.33;1.00;;;;;20.21;68.90;100909.78;5038649;28;45295;-73
2023/08/06 05:27:45;;;;;;;;;2.33;0.67;;;;;20.30;68.83;100916.81;5039185;28;45371;-73
2023/08/06 05:30:11;;;;;;;;;1.67;1.33;;;;;20.23;68.68;100910.66;5039310;28;46035;-74
2023/08/06 05:32:37;;;;;;;;;1.67;1.67;;;;;20.25;68.88;100922.16;5038951;28;45282;-74
2023/08/06 05:35:02;;;;;;;;;2.33;1.33;;;;;20.18;68.67;100922.19;5037309;28;45431;-73
2023/08/06 05:37:28;;;;;;;;;0.67;0.67;;;;;20.18;69.57;100927.50;5039020;28;45319;-73
2023/08/06 05:39:54;;;;;;;;;2.33;0.67;;;;;20.21;69.32;100932.75;5038644;28;45393;-73
2023/08/06 05:42:19;;;;;;;;;2.33;1.00;;;;;20.29;69.04;100930.97;5030694;28;45554;-73
2023/08/06 05:44:45;;;;;;;;;1.67;1.67;;;;;20.33;68.95;100930.06;5021630;28;45529;-73
2023/08/06 05:47:10;;;;;;;;;2.33;1.67;;;;;20.44;68.44;100940.66;5038436;28;45278;-74
2023/08/06 05:49:36;;;;;;;;;2.00;2.00;;;;;20.34;68.30;100907.09;5036931;28;46334;-73
2023/08/06 05:52:02;;;;;;;;;2.33;1.67;;;;;20.52;68.30;100937.97;5037816;28;45426;-73
2023/08/06 05:54:28;;;;;;;;;0.67;0.67;;;;;20.58;68.80;100954.72;5028378;28;46273;-73
2023/08/06 05:56:53;;;;;;;;;2.33;1.00;;;;;20.54;68.33;100944.16;5038344;28;45438;-73
2023/08/06 05:59:19;;;;;;;;;0.67;0.33;;;;;20.71;67.86;100950.28;5037764;28;45995;-73
2023/08/06 06:01:44;;;;;;;;;1.00;0.00;;;;;20.60;67.85;100945.03;5038089;28;45508;-73
2023/08/06 06:04:10;;;;;;;;;1.67;1.67;;;;;20.73;67.38;100961.78;5037487;28;45571;-74
2023/08/06 06:06:35;;;;;;;;;2.33;1.33;;;;;20.74;67.82;100955.56;5037728;28;45789;-74
2023/08/06 06:09:01;;;;;;;;;2.33;1.33;;;;;20.74;67.67;100966.19;5037979;28;45865;-74
2023/08/06 06:11:27;;;;;;;;;1.00;1.00;;;;;20.82;67.43;100960.84;5037756;28;46385;-74
2023/08/06 06:13:52;;;;;;;;;2.67;1.33;;;;;20.88;67.52;100962.59;5020409;28;45463;-74
2023/08/06 06:16:18;;;;;;;;;1.67;1.00;;;;;20.99;67.14;100966.03;5037876;28;45422;-74
2023/08/06 06:18:44;;;;;;;;;3.00;2.00;;;;;20.99;66.99;100960.72;5033236;28;46279;-71
2023/08/06 06:21:10;;;;;;;;;4.00;1.33;;;;;20.96;67.29;100966.06;5033038;28;45349;-73
2023/08/06 06:23:36;;;;;;;;;2.00;2.00;;;;;20.99;67.44;100968.69;5033653;28;45387;-72
2023/08/06 06:26:02;;;;;;;;;1.67;1.33;;;;;20.88;67.63;100965.25;5037649;28;45577;-74
2023/08/06 06:28:27;;;;;;;;;2.33;0.67;;;;;20.93;67.06;100969.63;5037154;28;46156;-73
2023/08/06 06:30:53;;;;;;;;;10.00;7.33;;;;;20.97;67.62;100968.72;5036658;28;45480;-74
2023/08/06 06:33:19;;;;;;;;;4.00;4.00;;;;;20.94;67.50;100967.84;5036156;28;45576;-73
2023/08/06 06:35:44;;;;;;;;;2.00;2.00;;;;;20.97;67.47;100963.41;5037452;28;45701;-73
2023/08/06 06:38:10;;;;;;;;;2.00;2.00;;;;;21.05;66.72;100971.34;5036812;28;45984;-72
2023/08/06 06:40:35;;;;;;;;;3.00;2.00;;;;;21.19;67.09;100984.53;5037276;28;45454;-73
2023/08/06 06:43:01;;;;;;;;;2.00;2.00;;;;;21.30;66.63;100987.97;5036275;28;45480;-74
2023/08/06 06:45:27;;;;;;;;;2.00;1.00;;;;;21.27;66.89;100972.06;5037668;28;45265;-72
2023/08/06 06:47:52;;;;;;;;;1.33;1.00;;;;;21.40;66.73;100989.66;5036649;28;45367;-73
2023/08/06 06:50:18;;;;;;;;;2.00;1.33;;;;;21.38;66.70;100982.59;5037314;28;45409;-74
2023/08/06 06:52:43;;;;;;;;;2.00;1.33;;;;;21.53;66.22;100994.94;5037915;28;45964;-73
2023/08/06 06:55:09;;;;;;;;;2.00;1.33;;;;;21.65;66.32;101000.16;5037731;28;45537;-73
2023/08/06 06:57:35;;;;;;;;;2.00;2.00;;;;;21.82;65.52;101007.97;5037137;28;46089;-73
2023/08/06 07:00:00;;;;;;;;;2.67;1.00;;;;;22.06;65.12;101006.84;5036415;28;45362;-74
2023/08/06 07:02:26;;;;;;;;;2.00;1.00;;;;;22.45;64.05;101012.69;5036853;28;45371;-73
2023/08/06 07:04:51;;;;;;;;;1.00;1.00;;;;;22.63;61.79;101006.25;5037263;28;45347;-73
2023/08/06 07:07:17;;;;;;;;;1.00;1.00;;;;;22.93;62.86;101009.41;5037423;28;46038;-73
2023/08/06 07:09:42;;;;;;;;;1.33;1.00;;;;;23.66;61.44;101006.56;5036147;28;45628;-74
2023/08/06 07:12:08;;;;;;;;;1.00;1.00;;;;;24.95;59.09;101017.47;5036187;28;45391;-72
2023/08/06 07:14:34;;;;;;;;;1.00;1.00;;;;;27.10;50.84;101006.47;5033574;28;45550;-74
2023/08/06 07:16:59;;;;;;;;;2.00;2.00;;;;;27.18;51.76;101001.75;5034716;28;47709;-73
2023/08/06 07:19:25;;;;;;;;;2.00;2.00;;;;;26.97;50.10;100995.22;5034349;28;45468;-73
2023/08/06 07:21:50;;;;;;;;;2.33;2.00;;;;;27.67;47.60;100993.91;5034444;28;45461;-74
2023/08/06 07:24:16;;;;;;;;;4.00;3.67;;;;;27.80;48.52;100993.50;5035279;28;45587;-73
2023/08/06 07:26:42;;;;;;;;;3.00;1.00;;;;;27.64;48.18;100988.66;5035674;28;46006;-74
2023/08/06 07:29:07;;;;;;;;;3.33;1.67;;;;;27.03;47.82;100995.97;5036186;28;45505;-73
2023/08/06 07:31:33;;;;;;;;;2.00;1.00;;;;;26.53;48.46;100996.56;5035643;28;45443;-74
2023/08/06 07:33:59;;;;;;;;;2.00;1.00;;;;;26.41;48.71;101004.94;5035664;28;45409;-73
2023/08/06 07:36:24;;;;;;;;;2.67;2.00;;;;;26.23;48.90;101001.00;5036671;28;45296;-73
2023/08/06 07:38:55;;;;;;;;;2.00;1.00;;;;;26.06;51.12;101006.78;5035676;28;45360;-72
2023/08/06 07:41:22;;;;;;;;;6.00;6.00;;;;;26.12;51.41;100995.91;5036990;28;45548;-72
2023/08/06 07:43:48;;;;;;;;;2.00;1.00;;;;;26.66;51.02;101003.34;5037480;28;45537;-73
2023/08/06 07:46:13;;;;;;;;;1.00;1.00;;;;;27.05;50.52;100991.44;5037267;28;45986;-74
2023/08/06 07:48:39;;;;;;;;;2.00;1.00;;;;;27.32;50.26;100998.66;5035653;28;45465;-72
2023/08/06 07:51:04;;;;;;;;;0.00;0.00;;;;;27.41;49.46;101001.94;5036377;28;45473;-72
2023/08/06 07:53:30;;;;;;;;;3.00;1.00;;;;;27.26;49.76;100984.56;5036964;28;45559;-74
2023/08/06 07:55:57;;;;;;;;;1.67;1.00;;;;;27.45;49.79;100993.75;5036727;28;45416;-75
2023/08/06 07:58:25;;;;;;;;;2.00;1.00;;;;;27.67;48.09;100991.22;5035507;28;45477;-74
2023/08/06 08:00:50;;;;;;;;;1.00;1.00;;;;;27.68;47.22;100978.69;5036452;28;45665;-74
2023/08/06 08:03:16;;;;;;;;;2.33;1.67;;;;;28.45;46.28;100995.66;5036808;28;45517;-76
2023/08/06 08:05:44;;;;;;;;;1.00;0.00;;;;;31.47;40.07;100967.28;5036601;28;45527;-75
2023/08/06 08:08:10;;;;;;;;;1.00;1.00;;;;;33.71;35.64;100979.44;5034492;28;45463;-77
2023/08/06 08:10:37;;;;;;;;;1.33;0.33;;;;;35.05;36.14;100974.63;5036222;28;45450;-74
2023/08/06 08:13:04;;;;;;;;;4.00;3.00;;;;;36.68;31.51;100976.16;5036853;28;45578;-73
2023/08/06 08:15:31;;;;;;;;;1.33;0.67;;;;;37.77;29.50;100981.59;5034854;28;47659;-73
2023/08/06 08:17:56;;;;;;;;;1.00;1.00;;;;;38.70;28.17;100983.31;5035668;28;45501;-73
2023/08/06 08:20:22;;;;;;;;;0.33;0.00;;;;;38.30;28.17;100989.25;5035693;28;45384;-72
2023/08/06 08:22:48;;;;;;;;;0.00;0.00;;;;;37.03;29.75;100989.88;5035451;28;45518;-73
2023/08/06 08:25:15;;;;;;;;;0.33;0.33;;;;;35.82;30.81;100980.38;5034458;28;46082;-73
2023/08/06 08:27:40;;;;;;;;;1.00;0.00;;;;;34.60;33.61;100980.22;5034405;28;45556;-73
2023/08/06 08:30:06;;;;;;;;;5.00;4.33;;;;;34.07;32.54;100989.84;5035011;28;45471;-73
2023/08/06 08:32:32;;;;;;;;;15.00;12.00;;;;;33.04;32.73;100979.66;5038830;28;45493;-74
2023/08/06 08:34:57;;;;;;;;;1.67;1.33;;;;;32.47;34.99;100985.50;5038616;28;47042;-73
2023/08/06 08:37:24;;;;;;;;;1.67;1.00;;;;;32.50;35.28;100980.81;5037881;28;45530;-74
2023/08/06 08:39:50;;;;;;;;;0.00;0.00;;;;;32.02;35.44;100978.94;5039033;28;45324;-73
2023/08/06 08:42:16;;;;;;;;;2.00;1.00;;;;;32.03;36.55;100981.56;5039180;28;45376;-73
2023/08/06 08:44:45;;;;;;;;;2.00;1.00;;;;;33.05;34.93;100967.88;5036847;28;45420;-74
2023/08/06 08:47:12;;;;;;;;;0.67;0.67;;;;;32.60;35.21;100964.09;5037291;28;47185;-75
2023/08/06 08:49:38;;;;;;;;;9.00;9.00;;;;;32.06;34.87;100970.56;5029358;28;45509;-74
2023/08/06 08:52:10;;;;;;;;;2.33;2.00;;;;;31.68;35.90;100959.06;5033481;28;45434;-73
2023/08/06 08:54:38;;;;;;;;;2.00;2.00;;;;;31.22;37.56;100964.06;5035242;28;46308;-73
2023/08/06 08:57:04;;;;;;;;;2.00;1.00;;;;;30.95;37.92;100963.59;5038331;28;45450;-74
2023/08/06 08:59:30;;;;;;;;;2.67;1.33;;;;;30.44;38.36;100968.66;5036864;28;45426;-76
2023/08/06 09:01:57;;;;;;;;;1.67;1.67;;;;;30.12;38.54;100962.88;5037910;28;45340;-73
2023/08/06 09:04:23;;;;;;;;;5.00;3.67;;;;;30.28;38.34;100984.59;5033178;28;47000;-73
2023/08/06 09:06:56;;;;;;;;;1.67;1.00;;;;;30.33;38.32;100977.22;5035481;28;45591;-73
2023/08/06 09:09:37;;;;;;;;;3.33;2.00;;;;;30.58;38.42;100982.38;5038938;28;45485;-73
2023/08/06 09:12:12;;;;;;;;;2.67;1.00;;;;;30.81;37.85;100957.00;5037912;28;45655;-73
2023/08/06 09:14:38;;;;;;;;;2.00;2.00;;;;;31.06;37.81;100974.75;5038291;28;46318;-73
2023/08/06 09:17:04;;;;;;;;;2.00;2.00;;;;;31.30;36.61;100961.84;5037661;28;45712;-74
2023/08/06 09:19:30;;;;;;;;;2.67;1.00;;;;;32.59;35.31;100952.44;5038482;28;45504;-73
2023/08/06 09:21:56;;;;;;;;;1.00;0.67;;;;;33.44;31.09;100967.38;5038606;28;45416;-73
2023/08/06 09:24:22;;;;;;;;;1.00;0.00;;;;;33.82;31.48;100975.13;5038488;28;45479;-74
2023/08/06 09:26:47;;;;;;;;;0.00;0.00;;;;;34.83;30.43;100973.31;5037979;28;45375;-73
2023/08/06 09:29:14;;;;;;;;;0.00;0.00;;;;;35.96;28.62;100982.13;5039070;28;45489;-74
2023/08/06 09:31:44;;;;;;;;;1.00;0.33;;;;;36.90;27.91;100975.41;5036984;28;45480;-74
2023/08/06 09:34:17;;;;;;;;;1.00;0.00;;;;;37.39;27.60;100979.94;5036127;28;47365;-73
2023/08/06 09:36:47;;;;;;;;;2.67;0.67;;;;;37.08;27.93;100987.66;5037729;28;45481;-73
2023/08/06 09:39:14;;;;;;;;;1.00;0.00;;;;;36.19;28.75;100975.06;5037985;28;45391;-74
2023/08/06 09:41:40;;;;;;;;;0.00;0.00;;;;;35.75;29.02;100946.41;5036961;28;45644;-74
2023/08/06 09:44:05;;;;;;;;;3.67;2.33;;;;;34.91;28.99;100982.81;5035622;28;46863;-74
2023/08/06 09:46:32;;;;;;;;;1.00;0.00;;;;;34.14;30.49;100988.56;5036447;28;45469;-74
2023/08/06 09:48:58;;;;;;;;;1.00;0.00;;;;;33.79;31.21;100986.13;5037246;28;45465;-73
2023/08/06 09:51:24;;;;;;;;;2.67;0.00;;;;;33.33;31.49;100980.72;5037143;28;45473;-73
2023/08/06 09:53:50;;;;;;;;;3.33;0.33;;;;;32.57;32.53;100992.22;5036960;28;45421;-75
2023/08/06 09:56:18;;;;;;;;;0.33;0.00;;;;;32.12;33.03;100996.41;5036511;28;45461;-74
2023/08/06 09:58:45;;;;;;;;;2.00;1.00;;;;;31.63;33.95;100991.69;5035511;28;45874;-73
2023/08/06 10:01:12;;;;;;;;;2.00;0.33;;;;;31.38;34.56;100993.88;5035118;28;45436;-73
2023/08/06 10:03:40;;;;;;;;;2.00;1.00;;;;;31.26;34.93;100992.66;5036602;28;45552;-73
2023/08/06 10:06:08;;;;;;;;;2.00;1.00;;;;;31.73;34.28;100999.31;5036710;28;45653;-75
2023/08/06 10:08:34;;;;;;;;;4.00;2.00;;;;;31.84;34.79;101005.06;5035275;28;45455;-74
2023/08/06 10:11:03;;;;;;;;;1.00;1.00;;;;;32.18;33.55;101001.47;5037011;28;46574;-73
2023/08/06 10:13:30;;;;;;;;;1.67;1.33;;;;;32.04;33.79;100996.81;5035829;28;46073;-74
2023/08/06 10:15:56;;;;;;;;;1.67;0.00;;;;;32.09;34.81;101008.25;5035884;28;45540;-74
2023/08/06 10:18:23;;;;;;;;;0.67;0.67;;;;;31.81;34.42;101005.19;5035576;28;45976;-75
2023/08/06 10:20:48;;;;;;;;;2.33;1.00;;;;;31.35;34.62;101005.69;5034662;28;45423;-74
2023/08/06 10:23:14;;;;;;;;;2.00;1.00;;;;;30.35;35.50;101006.81;5036277;28;46104;-73
2023/08/06 10:25:42;;;;;;;;;1.33;1.00;;;;;29.57;36.89;101013.75;5034786;28;45480;-74
2023/08/06 10:28:09;;;;;;;;;1.00;1.00;;;;;29.62;37.04;101014.41;5035917;28;45649;-74
2023/08/06 10:30:41;;;;;;;;;4.00;2.00;;;;;29.62;37.57;101017.09;5036330;28;45693;-74
2023/08/06 10:33:07;;;;;;;;;2.00;1.00;;;;;29.82;37.52;100995.59;5036541;28;46202;-74
2023/08/06 10:35:50;;;;;;;;;1.00;1.00;;;;;29.90;38.11;101015.03;5036140;28;45520;-74
2023/08/06 10:38:25;;;;;;;;;0.00;0.00;;;;;30.14;36.59;101013.06;5036873;28;45403;-73
2023/08/06 10:41:02;;;;;;;;;1.00;1.00;;;;;30.08;35.80;101012.44;5035452;28;45420;-74
2023/08/06 10:43:29;;;;;;;;;2.00;1.00;;;;;30.49;36.11;101002.53;5036389;28;45644;-74
2023/08/06 10:45:56;;;;;;;;;1.00;1.00;;;;;30.95;35.45;101010.31;5036436;28;45376;-75
2023/08/06 10:48:45;;;;;;;;;2.00;1.00;;;;;31.35;35.17;101005.69;5035152;28;45501;-73
2023/08/06 10:51:13;;;;;;;;;0.67;0.00;;;;;31.36;33.24;100999.34;5027557;28;45548;-73
2023/08/06 10:53:43;;;;;;;;;0.00;0.00;;;;;31.52;34.40;100984.13;5033209;28;46598;-73
2023/08/06 10:56:16;;;;;;;;;1.33;1.00;;;;;31.94;34.87;100997.34;5021947;28;46567;-74
2023/08/06 10:58:44;;;;;;;;;3.00;0.33;;;;;32.14;33.55;100999.91;5030739;28;45426;-73
2023/08/06 11:01:10;;;;;;;;;1.00;0.00;;;;;32.15;33.07;100998.06;5034740;28;45579;-73
2023/08/06 11:03:36;;;;;;;;;0.33;0.33;;;;;31.75;32.65;101000.97;5034320;28;46873;-73
2023/08/06 11:06:02;;;;;;;;;2.00;2.00;;;;;31.46;32.83;100999.78;5036613;28;45573;-73
2023/08/06 11:08:30;;;;;;;;;1.00;1.00;;;;;31.58;32.84;100991.06;5028970;28;45526;-73
2023/08/06 11:11:13;;;;;;;;;1.00;1.00;;;;;32.16;32.62;100998.00;5027031;28;45422;-73
2023/08/06 11:13:44;;;;;;;;;0.67;0.67;;;;;32.29;31.67;100992.78;5033993;28;45577;-73
2023/08/06 11:16:10;;;;;;;;;0.00;0.00;;;;;32.15;32.04;100980.00;5036164;28;45460;-74
2023/08/06 11:18:36;;;;;;;;;0.67;0.67;;;;;32.24;32.37;100989.47;5036173;28;45386;-74
2023/08/06 11:21:02;;;;;;;;;3.00;2.00;;;;;32.27;31.86;100986.59;5036286;28;45374;-73